Wetterdaten der Wetterstation 59969 Hallenberg

Letzte Wetterlage 29.01.2015 21:08
Wetterdiagramm
Tabellarische Darstellung
Datum Temperatur Windchill Feuchte Luftdruck Windrichtung Windstärke Niederschlag
29.01.2015 21:08 -0,1 °C -0,1 °C 93 % 975,4 hPa 0,00 mm
29.01.2015 20:47 -0,1 °C -0,1 °C 93 % 975,4 hPa 0,00 mm
29.01.2015 20:27 -0,3 °C -0,3 °C 92 % 975,4 hPa 0,00 mm
29.01.2015 20:06 -0,3 °C -0,3 °C 92 % -- 0,00 mm
29.01.2015 19:25 -0,3 °C -0,3 °C 92 % 977,4 hPa 0,00 mm
29.01.2015 19:04 -0,3 °C -0,3 °C 91 % 977,4 hPa 0,30 mm
29.01.2015 18:43 -0,1 °C -0,1 °C 90 % 978,4 hPa 0,30 mm
29.01.2015 18:23 -0,1 °C -0,1 °C 90 % 978,4 hPa 0,30 mm
29.01.2015 18:02 -0,1 °C -0,1 °C 89 % 979,4 hPa 0,00 mm
29.01.2015 17:42 0,2 °C 0,2 °C 88 % 979,4 hPa 0,00 mm
29.01.2015 17:21 0,6 °C 0,6 °C 85 % 980,4 hPa 0,00 mm
29.01.2015 17:01 0,7 °C 0,7 °C 84 % 980,6 hPa 0,00 mm
29.01.2015 16:39 0,7 °C 0,7 °C 84 % 981,4 hPa 0,30 mm
29.01.2015 16:19 0,9 °C 0,9 °C 83 % 981,4 hPa 0,30 mm
29.01.2015 15:37 1,0 °C 1,0 °C 83 % 982,4 hPa 0,00 mm
29.01.2015 15:16 1,1 °C 1,1 °C 84 % 983,4 hPa 0,00 mm
29.01.2015 14:34 0,9 °C 0,9 °C 86 % 984,4 hPa 0,30 mm
29.01.2015 14:13 0,9 °C 0,9 °C 85 % 984,4 hPa 0,30 mm
29.01.2015 13:52 0,8 °C 0,8 °C 84 % 985,4 hPa 19,50 mm
29.01.2015 13:32 1,0 °C 1,0 °C 84 % 985,4 hPa 19,50 mm
29.01.2015 13:11 1,0 °C 1,0 °C 85 % 985,4 hPa 19,50 mm
Neue Wetterwarnung

Neue Niederschlagsmeldung
Neue Meldung
Regen Liveticker
    sehr starker Regen/Gewitter
    starker Regen/Gewitter
    mäßiger bis starker Regen
    mäßiger Regen
    leichter bis mäßiger Regen
    kein Regen
    Empfehlen Sie wetter.com